Time;durP1;ratioP1;P1;durP2;ratioP2;P2;SDS_P1;SDS_P2;PMS_P1;PMS_P2;Temp;Humidity;BMP_temperature;BMP_pressure;BME280_temperature;BME280_humidity;BME280_pressure;Samples;Min_cycle;Max_cycle;Signal;HPM_P1;HPM_P2
2024/04/14 00:01:17;;;;;;;0.50;0.40;;;17.20;99.90;;;;;;5418903;26;20261;-83
2024/04/14 00:03:46;;;;;;;0.50;0.40;;;17.20;99.30;;;;;;5416216;26;20455;-83
2024/04/14 00:06:11;;;;;;;0.60;0.60;;;17.10;99.60;;;;;;5416880;26;20314;-83
2024/04/14 00:08:40;;;;;;;0.50;0.30;;;17.10;99.30;;;;;;5416260;26;20475;-83
2024/04/14 00:11:05;;;;;;;0.50;0.40;;;17.00;97.70;;;;;;5427285;26;20234;-83
2024/04/14 00:13:34;;;;;;;0.50;0.40;;;16.90;97.20;;;;;;5429977;26;20540;-84
2024/04/14 00:16:03;;;;;;;0.50;0.30;;;16.90;96.70;;;;;;5422093;26;20214;-84
2024/04/14 00:18:31;;;;;;;0.50;0.30;;;16.80;97.10;;;;;;5421923;26;20460;-84
2024/04/14 00:20:57;;;;;;;0.50;0.40;;;16.70;97.70;;;;;;5422475;26;20502;-84
2024/04/14 00:23:25;;;;;;;0.50;0.40;;;16.70;98.50;;;;;;5421937;26;20510;-84
2024/04/14 00:25:51;;;;;;;0.50;0.40;;;16.60;98.10;;;;;;5421735;26;20292;-84
2024/04/14 00:28:20;;;;;;;0.50;0.30;;;16.50;99.90;;;;;;5422110;26;21018;-84
2024/04/14 00:30:45;;;;;;;0.50;0.40;;;16.40;99.90;;;;;;5421890;26;20225;-84
2024/04/14 00:33:17;;;;;;;0.50;0.40;;;16.30;99.90;;;;;;5421231;26;20533;-83
2024/04/14 00:35:42;;;;;;;0.50;0.33;;;16.30;99.90;;;;;;5421394;26;20699;-84
2024/04/14 00:38:11;;;;;;;2.63;1.57;;;16.20;99.90;;;;;;5421870;26;20466;-83
2024/04/14 00:40:37;;;;;;;0.50;0.40;;;16.20;99.90;;;;;;5421393;26;20216;-83
2024/04/14 00:43:05;;;;;;;0.50;0.40;;;16.10;99.90;;;;;;5422100;26;20964;-83
2024/04/14 00:45:31;;;;;;;0.50;0.40;;;16.10;99.90;;;;;;5423361;26;20662;-83
2024/04/14 00:48:00;;;;;;;0.50;0.40;;;16.00;99.90;;;;;;5422488;26;20517;-83
2024/04/14 00:50:28;;;;;;;0.50;0.40;;;16.00;99.90;;;;;;5422689;26;20502;-83
2024/04/14 00:52:57;;;;;;;0.50;0.40;;;15.90;99.90;;;;;;5420989;26;20458;-84
2024/04/14 00:55:23;;;;;;;0.50;0.40;;;15.90;99.90;;;;;;5421854;26;20450;-84
2024/04/14 00:57:52;;;;;;;0.70;0.60;;;15.80;99.90;;;;;;5422011;26;20466;-84
2024/04/14 01:00:19;;;;;;;0.50;0.40;;;15.80;99.90;;;;;;5420546;26;20537;-84
2024/04/14 01:02:50;;;;;;;0.50;0.40;;;15.70;99.90;;;;;;5420114;26;20532;-83
2024/04/14 01:05:16;;;;;;;2.30;0.50;;;15.70;99.90;;;;;;5420687;26;20435;-84
2024/04/14 01:07:47;;;;;;;0.50;0.40;;;15.70;99.90;;;;;;5421161;26;20511;-84
2024/04/14 01:10:13;;;;;;;0.50;0.40;;;15.60;99.90;;;;;;5421646;26;20502;-84
2024/04/14 01:12:42;;;;;;;0.50;0.40;;;15.60;99.90;;;;;;5421474;26;20451;-82
2024/04/14 01:15:08;;;;;;;0.50;0.40;;;15.50;99.90;;;;;;5423294;26;20462;-84
2024/04/14 01:17:36;;;;;;;0.50;0.40;;;15.50;99.90;;;;;;5425191;26;20802;-84
2024/04/14 01:20:02;;;;;;;0.50;0.40;;;15.50;99.90;;;;;;5425408;26;20745;-83
2024/04/14 01:22:30;;;;;;;0.50;0.40;;;15.30;99.90;;;;;;5425273;26;20455;-85
2024/04/14 01:25:03;;;;;;;0.60;0.60;;;15.30;99.90;;;;;;5426819;26;20461;-83
2024/04/14 01:27:31;;;;;;;0.60;0.57;;;15.20;99.90;;;;;;5435234;26;20453;-81
2024/04/14 01:29:57;;;;;;;0.60;0.50;;;15.10;99.90;;;;;;5430310;26;20554;-83
2024/04/14 01:32:26;;;;;;;0.50;0.43;;;15.10;99.90;;;;;;5423993;26;20461;-81
2024/04/14 01:34:51;;;;;;;0.50;0.47;;;15.00;99.90;;;;;;5427263;26;20204;-81
2024/04/14 01:37:20;;;;;;;0.50;0.40;;;15.00;99.90;;;;;;5435606;26;20453;-82
2024/04/14 01:39:45;;;;;;;0.70;0.70;;;14.90;99.90;;;;;;5429094;26;20220;-82
2024/04/14 01:42:16;;;;;;;0.50;0.40;;;14.90;99.90;;;;;;5424404;26;20842;-80
2024/04/14 01:44:42;;;;;;;0.50;0.40;;;14.80;99.90;;;;;;5420202;26;20264;-81
2024/04/14 01:47:11;;;;;;;0.50;0.40;;;14.80;99.90;;;;;;5420488;26;20583;-80
2024/04/14 01:49:37;;;;;;;0.50;0.40;;;14.80;99.90;;;;;;5420783;26;20295;-82
2024/04/14 01:52:06;;;;;;;0.50;0.40;;;14.80;99.90;;;;;;5420896;26;20454;-80
2024/04/14 01:54:32;;;;;;;0.50;0.40;;;14.80;99.90;;;;;;5419139;26;20213;-82
2024/04/14 01:57:00;;;;;;;0.50;0.40;;;14.70;99.90;;;;;;5419093;26;20499;-81
2024/04/14 01:59:29;;;;;;;0.50;0.40;;;14.80;99.90;;;;;;5419094;26;20849;-82
2024/04/14 02:01:57;;;;;;;0.50;0.40;;;14.80;99.90;;;;;;5419196;26;20543;-81
2024/04/14 02:04:23;;;;;;;0.50;0.40;;;14.80;99.90;;;;;;5418583;26;20446;-82
2024/04/14 02:06:52;;;;;;;0.50;0.40;;;14.90;99.90;;;;;;5418695;26;20435;-82
2024/04/14 02:09:18;;;;;;;0.50;0.40;;;14.90;99.90;;;;;;5418675;26;20326;-80
2024/04/14 02:11:46;;;;;;;0.50;0.40;;;14.90;99.90;;;;;;5418511;26;20470;-80
2024/04/14 02:14:12;;;;;;;0.50;0.40;;;14.90;99.90;;;;;;5418671;26;20228;-82
2024/04/14 02:16:43;;;;;;;0.50;0.40;;;15.00;99.90;;;;;;5418774;26;20541;-81
2024/04/14 02:19:09;;;;;;;0.50;0.40;;;15.00;99.90;;;;;;5418412;26;20296;-81
2024/04/14 02:21:37;;;;;;;0.50;0.40;;;15.00;99.90;;;;;;5418326;26;20451;-81
2024/04/14 02:24:03;;;;;;;0.50;0.40;;;15.00;99.90;;;;;;5417871;26;20216;-82
2024/04/14 02:26:32;;;;;;;1.77;1.67;;;15.00;99.90;;;;;;5418029;26;20521;-82
2024/04/14 02:28:58;;;;;;;0.50;0.40;;;15.00;99.90;;;;;;5417862;26;20550;-82
2024/04/14 02:31:26;;;;;;;0.50;0.40;;;14.90;99.90;;;;;;5417887;26;20984;-81
2024/04/14 02:33:54;;;;;;;0.50;0.40;;;14.90;99.90;;;;;;5417590;26;20347;-82
2024/04/14 02:36:26;;;;;;;0.50;0.40;;;14.80;99.90;;;;;;5417842;26;20528;-82
2024/04/14 02:38:52;;;;;;;0.50;0.40;;;14.70;99.90;;;;;;5417755;26;21048;-83
2024/04/14 02:41:21;;;;;;;0.50;0.40;;;14.60;99.90;;;;;;5417765;26;20466;-82
2024/04/14 02:43:46;;;;;;;0.50;0.40;;;14.50;99.90;;;;;;5419120;26;20513;-84
2024/04/14 02:46:15;;;;;;;0.50;0.40;;;14.50;99.90;;;;;;5422603;26;20551;-84
2024/04/14 02:48:47;;;;;;;0.50;0.40;;;14.40;99.90;;;;;;5423293;26;20264;-84
2024/04/14 02:51:18;;;;;;;0.50;0.40;;;14.40;99.90;;;;;;5423180;26;20533;-84
2024/04/14 02:53:44;;;;;;;0.60;0.53;;;14.30;99.90;;;;;;5422630;26;20462;-84
2024/04/14 02:56:12;;;;;;;0.93;0.90;;;14.30;99.90;;;;;;5422786;26;20572;-83
2024/04/14 02:58:38;;;;;;;0.50;0.40;;;14.20;99.90;;;;;;5422262;26;20307;-84
2024/04/14 03:01:07;;;;;;;0.50;0.40;;;14.20;99.90;;;;;;5422662;26;20458;-83
2024/04/14 03:03:32;;;;;;;0.50;0.40;;;14.20;99.90;;;;;;5422754;26;20220;-82
2024/04/14 03:06:02;;;;;;;0.50;0.40;;;14.10;99.90;;;;;;5422862;26;20453;-84
2024/04/14 03:08:32;;;;;;;0.50;0.40;;;14.10;99.90;;;;;;5422486;26;20719;-84
2024/04/14 03:11:01;;;;;;;0.80;0.80;;;14.20;99.90;;;;;;5422572;26;20466;-84
2024/04/14 03:13:27;;;;;;;0.50;0.40;;;14.20;99.90;;;;;;5421996;26;20438;-84
2024/04/14 03:15:55;;;;;;;0.70;0.70;;;14.20;99.90;;;;;;5422559;26;20503;-84
2024/04/14 03:18:21;;;;;;;0.50;0.40;;;14.30;99.90;;;;;;5422282;26;20548;-84
2024/04/14 03:20:57;;;;;;;0.50;0.40;;;14.30;99.90;;;;;;5422407;26;20458;-84
2024/04/14 03:23:24;;;;;;;0.50;0.40;;;14.40;99.90;;;;;;5422234;26;20212;-84
2024/04/14 03:25:56;;;;;;;0.50;0.40;;;14.40;99.90;;;;;;5422236;26;20520;-83
2024/04/14 03:28:23;;;;;;;0.50;0.40;;;14.40;99.90;;;;;;5422256;26;20569;-82
2024/04/14 03:30:51;;;;;;;0.50;0.40;;;14.40;99.90;;;;;;5422264;26;20482;-84
2024/04/14 03:33:17;;;;;;;0.50;0.40;;;14.40;99.90;;;;;;5422066;26;20458;-84
2024/04/14 03:35:45;;;;;;;0.73;0.67;;;14.40;99.90;;;;;;5421783;26;20450;-84
2024/04/14 03:38:14;;;;;;;0.50;0.40;;;14.40;99.90;;;;;;5421470;26;20227;-84
2024/04/14 03:40:42;;;;;;;0.50;0.40;;;14.50;99.90;;;;;;5422271;26;20823;-84
2024/04/14 03:43:13;;;;;;;0.50;0.40;;;14.40;99.90;;;;;;5421156;26;20594;-80
2024/04/14 03:45:45;;;;;;;0.50;0.40;;;14.40;99.90;;;;;;5420972;26;20572;-84
2024/04/14 03:48:14;;;;;;;0.50;0.40;;;14.40;99.90;;;;;;5420919;26;20458;-84
2024/04/14 03:50:40;;;;;;;0.50;0.40;;;14.30;99.90;;;;;;5420149;26;20559;-83
2024/04/14 03:53:08;;;;;;;0.50;0.40;;;14.20;99.90;;;;;;5419779;26;20459;-83
2024/04/14 03:55:36;;;;;;;0.50;0.40;;;14.20;99.90;;;;;;5420102;26;20578;-82
2024/04/14 03:58:02;;;;;;;0.50;0.40;;;14.10;99.90;;;;;;5419768;26;20517;-81
2024/04/14 04:00:33;;;;;;;0.50;0.40;;;14.10;99.90;;;;;;5419656;26;20465;-83
2024/04/14 04:02:59;;;;;;;0.50;0.33;;;14.10;99.90;;;;;;5418680;26;20450;-83
2024/04/14 04:05:27;;;;;;;0.50;0.40;;;14.10;99.90;;;;;;5418889;26;20834;-82
2024/04/14 04:07:53;;;;;;;0.50;0.40;;;14.10;99.90;;;;;;5418930;26;20329;-83
2024/04/14 04:10:22;;;;;;;0.50;0.40;;;14.00;99.90;;;;;;5418593;26;20458;-83
2024/04/14 04:12:47;;;;;;;0.50;0.40;;;14.00;99.90;;;;;;5418784;26;20271;-83
2024/04/14 04:15:16;;;;;;;0.50;0.50;;;13.90;99.90;;;;;;5418605;26;20801;-84
2024/04/14 04:17:46;;;;;;;0.50;0.40;;;14.00;99.90;;;;;;5419087;26;20587;-83
2024/04/14 04:20:14;;;;;;;0.50;0.40;;;14.00;99.90;;;;;;5418252;26;20983;-80
2024/04/14 04:22:40;;;;;;;0.50;0.40;;;14.00;99.90;;;;;;5418192;26;20493;-82
2024/04/14 04:25:08;;;;;;;0.50;0.40;;;14.10;99.90;;;;;;5417569;26;20438;-82
2024/04/14 04:27:34;;;;;;;0.50;0.40;;;14.00;99.90;;;;;;5417329;26;20353;-81
2024/04/14 04:30:03;;;;;;;0.50;0.40;;;14.00;99.90;;;;;;5417597;26;20995;-83
2024/04/14 04:32:28;;;;;;;0.50;0.40;;;14.00;99.90;;;;;;5417499;26;20223;-81
2024/04/14 04:34:59;;;;;;;0.50;0.40;;;14.00;99.90;;;;;;5417434;26;20871;-80
2024/04/14 04:37:25;;;;;;;0.50;0.40;;;14.00;99.90;;;;;;5417526;26;20484;-82
2024/04/14 04:39:54;;;;;;;0.50;0.40;;;14.00;99.90;;;;;;5417324;26;20560;-82
2024/04/14 04:42:19;;;;;;;0.50;0.40;;;13.90;99.90;;;;;;5417864;26;20625;-83
2024/04/14 04:44:48;;;;;;;0.50;0.40;;;13.90;99.90;;;;;;5416983;26;20504;-83
2024/04/14 04:47:14;;;;;;;0.50;0.40;;;13.90;99.90;;;;;;5417088;26;20209;-80
2024/04/14 04:49:43;;;;;;;0.50;0.40;;;13.90;99.90;;;;;;5416043;26;20511;-82
2024/04/14 04:52:11;;;;;;;0.50;0.40;;;13.80;99.90;;;;;;5417237;26;20270;-80
2024/04/14 04:54:39;;;;;;;0.50;0.40;;;13.80;99.90;;;;;;5416425;26;20518;-81
2024/04/14 04:57:05;;;;;;;0.50;0.40;;;13.80;99.90;;;;;;5416920;26;20681;-81
2024/04/14 04:59:34;;;;;;;0.50;0.40;;;13.70;99.90;;;;;;5417042;26;20977;-80
2024/04/14 05:01:59;;;;;;;0.50;0.40;;;13.70;99.90;;;;;;5416641;26;20212;-82
2024/04/14 05:04:28;;;;;;;0.50;0.40;;;13.60;99.90;;;;;;5416159;26;20560;-82
2024/04/14 05:06:54;;;;;;;1.53;1.47;;;13.50;99.90;;;;;;5416579;26;20219;-81
2024/04/14 05:09:25;;;;;;;0.50;0.40;;;13.60;99.90;;;;;;5416311;26;20580;-80
2024/04/14 05:11:53;;;;;;;0.50;0.40;;;13.60;99.90;;;;;;5416602;26;20477;-81
2024/04/14 05:14:22;;;;;;;0.50;0.40;;;13.60;99.90;;;;;;5416241;26;20787;-82
2024/04/14 05:16:50;;;;;;;0.50;0.50;;;13.70;99.90;;;;;;5416288;26;20454;-81
2024/04/14 05:19:16;;;;;;;0.50;0.50;;;13.60;99.90;;;;;;5416458;26;21079;-80
2024/04/14 05:21:45;;;;;;;0.50;0.40;;;13.60;99.90;;;;;;5416427;26;20462;-82
2024/04/14 05:24:11;;;;;;;0.50;0.40;;;13.60;99.90;;;;;;5415824;26;20276;-80
2024/04/14 05:26:42;;;;;;;0.50;0.40;;;13.60;99.90;;;;;;5415937;26;20457;-80
2024/04/14 05:29:08;;;;;;;0.50;0.40;;;13.60;99.90;;;;;;5415770;26;20532;-83
2024/04/14 05:31:36;;;;;;;0.50;0.40;;;13.60;99.90;;;;;;5416206;26;20540;-82
2024/04/14 05:34:02;;;;;;;0.50;0.40;;;13.60;99.90;;;;;;5415990;26;20315;-82
2024/04/14 05:36:30;;;;;;;0.50;0.40;;;13.50;99.90;;;;;;5415778;26;20453;-82
2024/04/14 05:38:56;;;;;;;0.50;0.40;;;13.60;99.90;;;;;;5415636;26;20347;-83
2024/04/14 05:41:24;;;;;;;0.60;0.50;;;13.60;99.90;;;;;;5415730;26;20453;-82
2024/04/14 05:43:53;;;;;;;1.37;1.27;;;13.60;99.90;;;;;;5415419;26;20250;-82
2024/04/14 05:46:21;;;;;;;0.50;0.40;;;13.60;99.90;;;;;;5415876;26;21064;-82
2024/04/14 05:48:48;;;;;;;0.50;0.40;;;13.60;99.90;;;;;;5415335;26;20575;-82
2024/04/14 05:51:19;;;;;;;0.50;0.40;;;13.70;99.90;;;;;;5415101;26;20541;-83
2024/04/14 05:53:45;;;;;;;0.50;0.40;;;13.70;99.90;;;;;;5416087;26;20456;-82
2024/04/14 05:56:13;;;;;;;0.50;0.40;;;13.70;99.90;;;;;;5418904;26;20502;-82
2024/04/14 05:58:39;;;;;;;0.50;0.40;;;13.70;99.90;;;;;;5426278;26;20234;-83
2024/04/14 06:01:12;;;;;;;0.50;0.40;;;13.80;99.90;;;;;;5434887;26;20529;-81
2024/04/14 06:03:37;;;;;;;0.50;0.40;;;13.90;99.90;;;;;;5438125;26;20434;-82
2024/04/14 06:06:06;;;;;;;0.50;0.40;;;14.00;99.90;;;;;;5439537;26;20434;-81
2024/04/14 06:08:32;;;;;;;0.50;0.40;;;14.00;99.90;;;;;;5429219;26;20232;-84
2024/04/14 06:11:01;;;;;;;0.50;0.40;;;13.90;99.90;;;;;;5425715;26;20908;-84
2024/04/14 06:13:28;;;;;;;0.50;0.40;;;13.90;99.90;;;;;;5424311;26;20247;-84
2024/04/14 06:15:58;;;;;;;4.00;2.00;;;13.90;99.90;;;;;;5423710;26;20796;-84
2024/04/14 06:18:26;;;;;;;0.50;0.40;;;13.90;99.90;;;;;;5424061;26;20463;-84
2024/04/14 06:20:55;;;;;;;0.50;0.40;;;14.00;99.90;;;;;;5424418;26;20490;-84
2024/04/14 06:23:20;;;;;;;0.50;0.40;;;14.10;99.90;;;;;;5423800;26;20600;-84
2024/04/14 06:25:49;;;;;;;0.50;0.40;;;14.10;99.90;;;;;;5424053;26;20453;-84
2024/04/14 06:28:16;;;;;;;0.50;0.40;;;14.20;99.90;;;;;;5423980;26;20280;-84
2024/04/14 06:30:44;;;;;;;0.50;0.40;;;14.20;99.90;;;;;;5424502;26;20462;-84
2024/04/14 06:33:10;;;;;;;0.97;0.97;;;14.20;99.90;;;;;;5424415;26;20446;-84
2024/04/14 06:35:42;;;;;;;0.50;0.40;;;14.20;99.90;;;;;;5423535;26;21067;-84
2024/04/14 06:38:09;;;;;;;0.50;0.40;;;14.30;99.90;;;;;;5433028;26;20328;-80
2024/04/14 06:40:37;;;;;;;0.50;0.40;;;14.30;99.90;;;;;;5441032;26;20530;-80
2024/04/14 06:43:03;;;;;;;0.50;0.40;;;14.30;99.90;;;;;;5440975;26;20596;-80
2024/04/14 06:45:32;;;;;;;0.50;0.40;;;14.30;99.90;;;;;;5441171;26;20509;-81
2024/04/14 06:47:57;;;;;;;0.50;0.40;;;14.40;99.90;;;;;;5440090;26;20554;-80
2024/04/14 06:50:26;;;;;;;0.50;0.40;;;14.50;99.90;;;;;;5437667;26;20459;-80
2024/04/14 06:52:54;;;;;;;0.50;0.40;;;14.70;99.90;;;;;;5437372;26;20319;-82
2024/04/14 06:55:23;;;;;;;0.50;0.40;;;14.90;99.90;;;;;;5424056;26;20461;-83
2024/04/14 06:57:48;;;;;;;0.50;0.40;;;15.30;99.90;;;;;;5429086;26;20481;-84
2024/04/14 07:00:17;;;;;;;0.50;0.40;;;15.60;99.90;;;;;;5425142;26;20540;-84
2024/04/14 07:02:43;;;;;;;0.50;0.40;;;15.80;99.90;;;;;;5424447;26;20224;-84
2024/04/14 07:05:12;;;;;;;0.50;0.40;;;16.20;99.90;;;;;;5424488;26;20549;-84
2024/04/14 07:07:38;;;;;;;0.50;0.40;;;16.70;99.90;;;;;;5424229;26;20272;-83
2024/04/14 07:10:10;;;;;;;0.50;0.30;;;17.10;99.90;;;;;;5424703;26;20529;-84
2024/04/14 07:12:36;;;;;;;0.50;0.40;;;17.50;99.90;;;;;;5422192;26;20513;-84
2024/04/14 07:15:05;;;;;;;0.50;0.40;;;17.80;99.90;;;;;;5424104;26;20557;-84
2024/04/14 07:17:31;;;;;;;2.80;1.23;;;17.90;99.90;;;;;;5423926;26;20239;-84
2024/04/14 07:19:59;;;;;;;0.50;0.30;;;17.50;99.90;;;;;;5423907;26;21085;-83
2024/04/14 07:22:25;;;;;;;0.50;0.40;;;17.30;99.90;;;;;;5421790;26;20339;-83
2024/04/14 07:24:53;;;;;;;0.50;0.40;;;17.10;99.90;;;;;;5421208;26;20451;-83
2024/04/14 07:27:21;;;;;;;0.50;0.40;;;17.10;99.90;;;;;;5421657;26;20255;-82
2024/04/14 07:29:50;;;;;;;0.50;0.40;;;17.30;99.90;;;;;;5422211;26;20591;-84
2024/04/14 07:32:16;;;;;;;0.50;0.40;;;17.50;99.90;;;;;;5422552;26;20521;-83
2024/04/14 07:34:44;;;;;;;0.50;0.40;;;17.70;99.90;;;;;;5422659;26;20582;-83
2024/04/14 07:37:10;;;;;;;0.50;0.30;;;18.00;99.90;;;;;;5421186;26;20216;-82
2024/04/14 07:39:38;;;;;;;0.50;0.40;;;18.10;99.90;;;;;;5420413;26;20739;-82
2024/04/14 07:42:08;;;;;;;0.50;0.40;;;18.10;99.90;;;;;;5421872;26;20490;-82
2024/04/14 07:44:39;;;;;;;2.30;1.17;;;17.90;99.90;;;;;;5422399;26;20500;-83
2024/04/14 07:47:05;;;;;;;0.50;0.40;;;17.50;99.90;;;;;;5423996;26;20453;-82
2024/04/14 07:49:36;;;;;;;0.50;0.40;;;17.30;99.90;;;;;;5419547;26;20450;-81
2024/04/14 07:52:02;;;;;;;0.50;0.40;;;16.90;99.90;;;;;;5418151;26;20445;-82
2024/04/14 07:54:30;;;;;;;0.50;0.40;;;16.80;99.90;;;;;;5417293;26;20492;-83
2024/04/14 07:56:56;;;;;;;0.50;0.30;;;16.60;99.90;;;;;;5417486;26;20684;-81
2024/04/14 07:59:24;;;;;;;0.50;0.40;;;16.80;99.90;;;;;;5417043;26;20587;-83
2024/04/14 08:01:53;;;;;;;0.50;0.30;;;16.80;99.90;;;;;;5416921;26;20726;-82
2024/04/14 08:04:21;;;;;;;0.50;0.40;;;16.80;99.90;;;;;;5416704;26;20456;-82
2024/04/14 08:06:47;;;;;;;0.50;0.40;;;16.80;99.90;;;;;;5416660;26;20548;-83
2024/04/14 08:09:15;;;;;;;0.70;0.57;;;16.90;99.90;;;;;;5416578;26;20472;-83
2024/04/14 08:11:41;;;;;;;0.50;0.30;;;17.20;99.90;;;;;;5422682;26;20257;-84
2024/04/14 08:14:10;;;;;;;0.50;0.40;;;17.40;99.90;;;;;;5422776;26;20469;-84
2024/04/14 08:16:36;;;;;;;0.50;0.30;;;17.40;99.90;;;;;;5423029;26;20212;-83
2024/04/14 08:19:07;;;;;;;0.50;0.30;;;17.60;99.90;;;;;;5423113;26;20560;-82
2024/04/14 08:21:33;;;;;;;0.50;0.40;;;17.60;99.90;;;;;;5423057;26;20468;-84
2024/04/14 08:24:02;;;;;;;0.50;0.40;;;17.60;99.90;;;;;;5422854;26;20456;-84
2024/04/14 08:26:28;;;;;;;2.43;0.50;;;17.50;99.90;;;;;;5422534;26;20686;-83
2024/04/14 08:28:56;;;;;;;0.50;0.40;;;17.50;99.90;;;;;;5422760;26;20471;-84
2024/04/14 08:31:22;;;;;;;0.60;0.50;;;17.30;99.90;;;;;;5422086;26;20213;-82
2024/04/14 08:33:50;;;;;;;0.50;0.40;;;17.20;99.90;;;;;;5422633;26;20622;-84
2024/04/14 08:36:19;;;;;;;0.50;0.40;;;17.20;99.90;;;;;;5422774;26;20230;-83
2024/04/14 08:38:47;;;;;;;0.50;0.40;;;17.10;99.90;;;;;;5421952;26;20460;-84
2024/04/14 08:41:16;;;;;;;0.50;0.40;;;17.20;99.90;;;;;;5422204;26;20913;-85
2024/04/14 08:43:45;;;;;;;0.57;0.57;;;17.30;99.90;;;;;;5422091;26;20872;-83
2024/04/14 08:46:14;;;;;;;2.20;2.00;;;17.20;99.90;;;;;;5421655;26;20551;-83
2024/04/14 08:48:44;;;;;;;0.50;0.40;;;16.90;99.90;;;;;;5421733;26;20468;-84
2024/04/14 08:51:12;;;;;;;0.50;0.40;;;16.80;99.90;;;;;;5421941;26;20449;-85
2024/04/14 08:53:45;;;;;;;0.50;0.30;;;16.90;99.90;;;;;;5421386;26;20572;-85
2024/04/14 08:56:11;;;;;;;0.50;0.30;;;17.00;99.90;;;;;;5421402;26;20452;-85
2024/04/14 08:58:42;;;;;;;0.50;0.30;;;17.60;99.90;;;;;;5424897;26;20576;-85
2024/04/14 09:01:10;;;;;;;0.50;0.40;;;17.90;99.90;;;;;;5421440;26;21036;-83
2024/04/14 09:03:38;;;;;;;0.50;0.40;;;18.40;99.90;;;;;;5421023;26;20541;-85
2024/04/14 09:06:05;;;;;;;0.50;0.40;;;18.70;99.90;;;;;;5421999;26;20442;-83
2024/04/14 09:08:34;;;;;;;0.50;0.40;;;19.30;99.90;;;;;;5421077;26;20514;-85
2024/04/14 09:11:05;;;;;;;0.50;0.33;;;19.50;99.90;;;;;;5422543;26;20462;-85
2024/04/14 09:13:34;;;;;;;0.50;0.30;;;19.50;99.90;;;;;;5421395;26;20528;-85
2024/04/14 09:16:00;;;;;;;0.50;0.30;;;20.00;99.90;;;;;;5421928;26;20454;-85
2024/04/14 09:18:28;;;;;;;0.50;0.40;;;20.40;98.50;;;;;;5421687;26;20519;-84
2024/04/14 09:20:54;;;;;;;0.50;0.40;;;20.70;95.60;;;;;;5422002;26;20542;-84
2024/04/14 09:23:22;;;;;;;0.50;0.30;;;20.60;96.70;;;;;;5421346;26;20447;-84
2024/04/14 09:25:50;;;;;;;0.50;0.40;;;20.40;96.50;;;;;;5421030;26;20301;-84
2024/04/14 09:28:21;;;;;;;0.60;0.50;;;20.50;96.90;;;;;;5421521;26;20515;-83
2024/04/14 09:30:47;;;;;;;1.70;1.60;;;20.10;97.10;;;;;;5420881;26;20532;-83
2024/04/14 09:33:16;;;;;;;0.50;0.30;;;19.80;96.50;;;;;;5420619;26;20446;-84
2024/04/14 09:35:43;;;;;;;0.50;0.33;;;19.60;97.50;;;;;;5423866;26;20456;-85
2024/04/14 09:38:14;;;;;;;0.50;0.40;;;19.70;97.30;;;;;;5426464;26;20564;-83
2024/04/14 09:40:41;;;;;;;0.50;0.40;;;19.50;96.80;;;;;;5426110;26;20450;-85
2024/04/14 09:43:11;;;;;;;0.50;0.40;;;19.40;98.30;;;;;;5424963;26;20541;-84
2024/04/14 09:45:40;;;;;;;0.50;0.50;;;19.40;99.90;;;;;;5425616;26;20454;-83
2024/04/14 09:48:11;;;;;;;0.50;0.40;;;19.40;99.90;;;;;;5424491;26;20461;-84
2024/04/14 09:50:41;;;;;;;0.50;0.40;;;20.00;99.90;;;;;;5425063;26;20450;-85
2024/04/14 09:53:12;;;;;;;0.50;0.40;;;21.30;99.90;;;;;;5425689;26;20460;-85
2024/04/14 09:55:38;;;;;;;0.50;0.30;;;22.90;97.80;;;;;;5424520;26;20551;-83
2024/04/14 09:58:07;;;;;;;0.50;0.30;;;23.60;92.60;;;;;;5425171;26;20517;-83
2024/04/14 10:00:34;;;;;;;0.50;0.30;;;23.40;90.30;;;;;;5424987;26;20452;-84
2024/04/14 10:03:09;;;;;;;0.50;0.40;;;23.90;90.00;;;;;;5428656;26;20502;-83
2024/04/14 10:05:38;;;;;;;0.50;0.30;;;23.60;89.00;;;;;;5437785;26;20537;-84
2024/04/14 10:08:07;;;;;;;0.70;0.63;;;23.50;87.70;;;;;;5437570;26;20462;-84
2024/04/14 10:10:33;;;;;;;0.50;0.40;;;23.30;82.70;;;;;;5428903;26;20922;-84
2024/04/14 10:13:02;;;;;;;0.50;0.40;;;23.00;84.10;;;;;;5425045;26;20509;-85
2024/04/14 10:15:27;;;;;;;3.23;1.53;;;22.60;80.60;;;;;;5426260;26;20565;-84
2024/04/14 10:18:11;;;;;;;0.50;0.40;;;22.70;82.30;;;;;;5425968;26;21000;-82
2024/04/14 10:20:42;;;;;;;0.50;0.40;;;23.00;77.70;;;;;;5425919;26;20494;-84
2024/04/14 10:23:10;;;;;;;0.60;0.53;;;23.20;76.10;;;;;;5427300;26;20521;-85
2024/04/14 10:25:44;;;;;;;0.50;0.40;;;23.90;76.10;;;;;;5427990;26;20573;-85
2024/04/14 10:28:13;;;;;;;0.50;0.40;;;24.20;74.50;;;;;;5426775;26;20799;-85
2024/04/14 10:30:39;;;;;;;0.50;0.40;;;24.30;73.00;;;;;;5424328;26;20518;-84
2024/04/14 10:33:10;;;;;;;0.50;0.40;;;24.50;73.70;;;;;;5434105;26;20491;-82
2024/04/14 10:35:36;;;;;;;0.50;0.40;;;25.20;74.40;;;;;;5438084;26;20212;-81
2024/04/14 10:38:05;;;;;;;0.50;0.40;;;25.50;70.60;;;;;;5436604;26;20557;-83
2024/04/14 10:40:31;;;;;;;0.50;0.40;;;25.40;70.10;;;;;;5422572;26;20714;-84
2024/04/14 10:42:59;;;;;;;0.50;0.40;;;25.40;71.40;;;;;;5421931;26;20568;-85
2024/04/14 10:45:26;;;;;;;0.50;0.40;;;24.70;70.80;;;;;;5421739;26;20525;-83
2024/04/14 10:47:56;;;;;;;0.50;0.40;;;24.20;69.30;;;;;;5420440;26;20546;-84
2024/04/14 10:50:27;;;;;;;0.50;0.37;;;23.80;69.00;;;;;;5420106;26;20495;-82
2024/04/14 10:52:56;;;;;;;0.50;0.50;;;23.40;69.40;;;;;;5419741;26;20804;-82
2024/04/14 10:55:22;;;;;;;0.50;0.30;;;23.00;68.80;;;;;;5420426;26;20594;-83
2024/04/14 10:57:50;;;;;;;0.50;0.40;;;22.40;68.80;;;;;;5420615;26;20468;-84
2024/04/14 11:00:17;;;;;;;0.50;0.30;;;21.50;70.90;;;;;;5421582;26;20508;-84
2024/04/14 11:02:46;;;;;;;0.50;0.30;;;20.90;71.60;;;;;;5420348;26;20506;-82
2024/04/14 11:05:12;;;;;;;0.50;0.30;;;20.60;71.90;;;;;;5420219;26;20578;-83
2024/04/14 11:07:44;;;;;;;0.50;0.40;;;20.20;72.90;;;;;;5419522;26;20518;-83
2024/04/14 11:10:11;;;;;;;0.50;0.30;;;19.90;73.10;;;;;;5419500;26;20495;-83
2024/04/14 11:12:39;;;;;;;0.50;0.30;;;19.90;73.10;;;;;;5419349;26;20492;-83
2024/04/14 11:15:06;;;;;;;0.50;0.30;;;19.40;73.40;;;;;;5419894;26;20509;-81
2024/04/14 11:17:35;;;;;;;0.50;0.40;;;19.20;76.20;;;;;;5419814;26;20502;-83
2024/04/14 11:20:01;;;;;;;0.50;0.40;;;19.20;77.00;;;;;;5419436;26;20495;-83
2024/04/14 11:22:29;;;;;;;0.60;0.50;;;19.20;74.90;;;;;;5419439;26;20452;-84
2024/04/14 11:24:58;;;;;;;0.50;0.40;;;19.30;74.40;;;;;;5418840;26;20494;-83
2024/04/14 11:27:27;;;;;;;0.50;0.30;;;19.60;75.10;;;;;;5419295;26;20455;-81
2024/04/14 11:29:53;;;;;;;0.50;0.37;;;19.60;73.90;;;;;;5419027;26;20841;-82
2024/04/14 11:32:33;;;;;;;0.50;0.30;;;19.80;75.50;;;;;;5421016;26;20518;-81
2024/04/14 11:35:01;;;;;;;0.60;0.60;;;20.80;73.00;;;;;;5419179;26;20499;-83
2024/04/14 11:37:31;;;;;;;0.50;0.40;;;21.90;72.70;;;;;;5419011;26;20546;-83
2024/04/14 11:40:00;;;;;;;0.50;0.30;;;21.70;67.00;;;;;;5418495;26;20935;-83
2024/04/14 11:42:29;;;;;;;0.50;0.30;;;22.20;67.20;;;;;;5419619;26;20495;-82
2024/04/14 11:44:55;;;;;;;0.50;0.40;;;22.80;67.30;;;;;;5419247;26;20462;-83
2024/04/14 11:47:25;;;;;;;0.50;0.37;;;22.70;67.50;;;;;;5419957;26;20454;-84
2024/04/14 11:49:50;;;;;;;0.50;0.40;;;23.10;67.70;;;;;;5420333;26;20442;-84
2024/04/14 11:52:19;;;;;;;0.50;0.37;;;23.40;66.20;;;;;;5418320;26;20563;-81
2024/04/14 11:54:45;;;;;;;0.50;0.30;;;23.90;66.50;;;;;;5417354;26;20212;-83
2024/04/14 11:57:16;;;;;;;0.50;0.30;;;23.90;65.00;;;;;;5417351;26;20842;-80
2024/04/14 11:59:42;;;;;;;0.50;0.37;;;24.10;64.10;;;;;;5416755;26;20458;-82
2024/04/14 12:02:10;;;;;;;0.83;0.83;;;23.40;64.30;;;;;;5416891;26;20849;-82
2024/04/14 12:04:36;;;;;;;1.90;1.17;;;22.70;65.30;;;;;;5416850;26;20333;-83
2024/04/14 12:07:05;;;;;;;0.50;0.40;;;22.20;66.40;;;;;;5416927;26;20462;-83
2024/04/14 12:09:31;;;;;;;0.50;0.40;;;21.70;68.50;;;;;;5416637;26;20681;-83
2024/04/14 12:11:59;;;;;;;0.50;0.40;;;21.60;68.70;;;;;;5416747;26;20588;-83
2024/04/14 12:14:28;;;;;;;0.50;0.40;;;22.00;66.40;;;;;;5420063;26;20607;-81
2024/04/14 12:16:57;;;;;;;0.50;0.40;;;22.00;69.30;;;;;;5418639;26;20980;-83
2024/04/14 12:19:23;;;;;;;0.53;0.53;;;21.90;68.90;;;;;;5418638;26;20461;-82
2024/04/14 12:21:52;;;;;;;0.50;0.30;;;21.70;66.90;;;;;;5418868;26;20533;-83
2024/04/14 12:24:18;;;;;;;0.50;0.40;;;21.50;67.40;;;;;;5419026;26;20625;-83
2024/04/14 12:26:46;;;;;;;0.50;0.30;;;21.70;66.70;;;;;;5418646;26;20555;-83
2024/04/14 12:29:12;;;;;;;0.50;0.30;;;21.70;68.00;;;;;;5417594;26;20462;-81
2024/04/14 12:31:43;;;;;;;0.50;0.30;;;21.30;68.30;;;;;;5418067;26;20458;-84
2024/04/14 12:34:09;;;;;;;0.50;0.30;;;20.80;68.50;;;;;;5417759;26;20579;-82
2024/04/14 12:36:38;;;;;;;0.50;0.30;;;20.40;69.40;;;;;;5417637;26;20794;-82
2024/04/14 12:39:04;;;;;;;0.50;0.40;;;20.20;70.40;;;;;;5418110;26;20454;-83
2024/04/14 12:41:32;;;;;;;0.50;0.30;;;20.20;70.20;;;;;;5417804;26;20573;-82
2024/04/14 12:43:58;;;;;;;0.50;0.30;;;20.70;68.60;;;;;;5417025;26;20696;-82
2024/04/14 12:46:26;;;;;;;0.50;0.30;;;21.10;68.30;;;;;;5417943;26;20454;-82
2024/04/14 12:48:54;;;;;;;0.50;0.40;;;21.00;68.30;;;;;;5416980;26;20239;-81
2024/04/14 12:51:24;;;;;;;0.50;0.30;;;20.70;67.60;;;;;;5417735;26;20442;-81